Flight Track Log - Related Links

Times and Time Zones

All times are in EDT time to prevent confusion due to time zone crossing. See the SWA267 flight status page for this flight to view local times or setup timezone preferences in your user account.

Time Position Orientation Groundspeed Altitude Reporting Facility
EDT Latitude Longitude Course Direction KTS MPH feet Rate Location/Type
Wed 02:07:13 PM 39.1667 -76.7167 201° Southwest 176 203 1,900  Level Potomac TRACON
Wed 02:08:13 PM 39.1333 -76.7333 201° Southwest 226 260 4,800 2,750 Climbing Potomac TRACON
Wed 02:09:13 PM 39.1167 -76.6500 104° East 290 334 7,400 2,576 Climbing Potomac TRACON
Wed 02:11:03 PM 39.1292 -76.4611 85° East 316 364 12,100 2,894 Climbing Washington Center
Wed 02:12:03 PM 39.1444 -76.3331 81° East 335 386 15,600 3,300 Climbing Washington Center
Wed 02:13:03 PM 39.1556 -76.1992 84° East 355 409 18,700 3,000 Climbing Washington Center
Wed 02:14:03 PM 39.1708 -76.0600 82° East 378 435 21,600 2,600 Climbing Washington Center
Wed 02:15:03 PM 39.1900 -75.9103 81° East 399 459 23,900 2,300 Climbing Washington Center
Wed 02:16:03 PM 39.2569 -75.7925 54° Northeast 399 459 26,200 2,150 Climbing Washington Center
Wed 02:17:03 PM 39.3425 -75.6856 44° Northeast 393 452 28,200 1,700 Climbing Washington Center
Wed 02:18:03 PM 39.4303 -75.5756 44° Northeast 414 476 29,600 1,450 Climbing Washington Center
Wed 02:19:03 PM 39.5197 -75.4544 46° Northeast 434 499 31,100 1,700 Climbing Washington Center
Wed 02:20:03 PM 39.6111 -75.3383 44° Northeast 445 512 33,000 1,750 Climbing Washington Center
Wed 02:21:03 PM 39.7006 -75.2167 46° Northeast 456 525 34,600 2,000 Climbing Washington Center
Wed 02:22:03 PM 39.7958 -75.0756 49° Northeast 473 544 37,000 724 Climbing Washington Center
Wed 02:24:22 PM 39.9817 -74.8128 47° Northeast 457 526 37,000  Level New York Center
Wed 02:25:23 PM 40.0797 -74.6883 44° Northeast 443 510 37,000  Level New York Center
Wed 02:26:23 PM 40.1811 -74.6506 16° North 413 475 37,000  Level New York Center
Wed 02:27:24 PM 40.3053 -74.6083 15° North 408 470 37,000  Level New York Center
Wed 02:29:01 PM 40.4944 -74.5494 13° North 407 468 37,000  Level Boston Center
Wed 02:30:02 PM 40.5869 -74.5197 14° North 407 468 37,000  Level Boston Center
Wed 02:31:02 PM 40.7231 -74.4747 14° North 417 480 37,000  Level Boston Center
Wed 02:32:03 PM 40.8342 -74.4372 14° North 411 473 37,000  Level Boston Center
Wed 02:33:04 PM 40.9453 -74.4019 13° North 411 473 37,000  Level Boston Center
Wed 02:34:01 PM 41.0500 -74.3722 12° North 418 481 37,000  Level Boston Center
Wed 02:35:01 PM 41.1611 -74.3369 13° North 411 473 37,000  Level Boston Center
Wed 02:36:02 PM 41.2847 -74.2936 15° North 411 473 37,000  Level Boston Center
Wed 02:37:01 PM 41.3936 -74.2581 14° North 411 473 37,000  Level Boston Center
Wed 02:38:01 PM 41.5069 -74.2197 14° North 411 473 37,000 -347 Level Boston Center
Wed 02:39:02 PM 41.6117 -74.1867 13° North 416 479 36,300 -836 Descending Boston Center
Wed 02:40:03 PM 41.7206 -74.1533 13° North 411 473 35,300 -942 Descending Boston Center
Wed 02:41:03 PM 41.8272 -74.1200 13° North 403 464 34,400 -908 Descending Boston Center
Wed 02:42:02 PM 41.9342 -74.0811 15° North 396 456 33,500 -958 Descending Boston Center
Wed 02:43:02 PM 42.0408 -74.0475 13° North 391 450 32,500 -992 Descending Boston Center
Wed 02:44:03 PM 42.1239 -73.9319 46° Northeast 396 456 31,500 -942 Descending Boston Center
Wed 02:45:03 PM 42.1883 -73.7739 61° Northeast 414 476 30,600 -1,160 Descending Boston Center
Wed 02:46:02 PM 42.2547 -73.6125 61° Northeast 456 525 29,200 -1,700 Descending Boston Center
Wed 02:47:03 PM 42.3167 -73.4622 61° Northeast 463 533 27,200 -1,983 Descending Boston Center
Wed 02:48:03 PM 42.3783 -73.3114 61° Northeast 449 517 25,200 -1,780 Descending Boston Center
Wed 02:49:01 PM 42.4442 -73.1519 61° Northeast 450 518 23,700 -1,261 Descending Boston Center
Wed 02:50:02 PM 42.5031 -73.0117 60° Northeast 437 503 22,700 -984 Descending Boston Center
Wed 02:51:03 PM 42.5558 -72.8769 62° Northeast 423 487 21,700 -1,140 Descending Boston Center
Wed 02:52:03 PM 42.6125 -72.7392 61° Northeast 410 472 20,400 -1,700 Descending Boston Center
Wed 02:53:03 PM 42.6669 -72.6122 60° Northeast 404 465 18,300 -2,085 Descending Boston Center
Wed 02:54:01 PM 42.7108 -72.4769 66° East 397 457 16,300 -2,136 Descending Boston Center
Wed 02:55:01 PM 42.7400 -72.3328 75° East 392 451 14,100 -2,182 Descending Boston Center
Wed 02:56:02 PM 42.7669 -72.1911 75° East 385 443 11,900 -1,869 Descending Boston Center
Wed 02:57:03 PM 42.7936 -72.0667 74° East 380 437 10,300 -1,289 Descending Boston Center
Wed 02:58:03 PM 42.8203 -71.9333 75° East 347 399 9,300 -1,220 Descending Boston Center
Wed 02:59:01 PM 42.8156 -71.8286 93° East 308 354 7,900 -1,563 Descending Boston Center
Wed 03:00:02 PM 42.8044 -71.7072 97° East 299 344 6,200 -1,567 Descending Boston Center
Wed 03:01:15 PM 42.7975 -71.6167 96° East 280 322 4,400 -1,075 Descending Boston Center
Wed 03:02:16 PM 42.7864 -71.5036 98° East 260 299 3,800 -555 Descending Boston Center
Wed 03:03:14 PM 42.7981 -71.4158 80° East 214 246 3,300 -661 Descending Boston Center
Wed 03:04:14 PM 42.8333 -71.3925 26° Northeast 161 185 2,500 -984 Descending Boston Center
Wed 03:05:16 PM 42.8708 -71.3975 354° North 119 137 1,300 -908 Descending Boston Center
Wed 03:06:13 PM 42.9022 -71.4169 336° Northwest 131 151 700 -513 Descending Boston Center
Wed 03:07:13 PM 42.9336 -71.4361 336° Northwest 131 151 300 9,074 Descending Boston Center
Wed 03:08:14 PM 42.9650 -71.4556 336° Northwest 131 151 19,000 9,273 Climbing Boston Center
Wed 03:09:14 PM 42.9967 -71.4778 333° Northwest 131 151 19,000  Level Boston Center
Wed 03:10:15 PM 43.0281 -71.4972 336° Northwest 131 151 19,000  Level Boston Center
Wed 03:12:00 PM 42.9328 -71.4358 160° South  Level Estimated
Wed 03:19:00 PM 42.9328 -71.4358 160° South  Level Estimated
Wed 03:20:00 PM 42.9328 -71.4358 160° South  Level Estimated
Wed 03:21:00 PM 42.9328 -71.4358 160° South  Level Estimated
Wed 03:22:00 PM 42.9328 -71.4358 160° South  Level Estimated
Wed 03:23:00 PM 42.9328 -71.4358 160° South  Level Estimated

Login

Don't have an account? Register now (free) for customized features, flight alerts, and more!